Time;durP1;ratioP1;P1;durP2;ratioP2;P2;SDS_P1;SDS_P2;PMS_P1;PMS_P2;Temp;Humidity;BMP_temperature;BMP_pressure;BME280_temperature;BME280_humidity;BME280_pressure;Samples;Min_cycle;Max_cycle;Signal;HPM_P1;HPM_P2
2021/10/24 00:00:35;;;;;;;20.48;9.52;;;;;;;4.15;88.67;102564.22;5029126;28;20034;-77
2021/10/24 00:03:01;;;;;;;23.77;11.15;;;;;;;4.16;88.59;102560.72;5023429;28;20062;-77
2021/10/24 00:05:27;;;;;;;19.85;9.48;;;;;;;4.12;88.54;102566.09;5048319;28;20044;-77
2021/10/24 00:07:52;;;;;;;16.25;9.65;;;;;;;4.07;88.83;102556.88;5047963;28;20049;-78
2021/10/24 00:10:18;;;;;;;20.10;9.55;;;;;;;4.04;89.21;102558.75;5031806;28;20036;-77
2021/10/24 00:12:43;;;;;;;17.90;9.52;;;;;;;4.01;89.32;102553.75;5031204;28;20465;-77
2021/10/24 00:15:09;;;;;;;16.80;8.93;;;;;;;4.02;89.35;102558.81;5047909;28;20402;-77
2021/10/24 00:17:34;;;;;;;22.55;10.50;;;;;;;4.03;89.56;102546.81;5048390;28;20033;-78
2021/10/24 00:20:00;;;;;;;23.27;9.70;;;;;;;3.99;89.93;102553.81;5032222;28;20125;-77
2021/10/24 00:22:25;;;;;;;21.95;9.68;;;;;;;3.97;89.84;102552.22;5047617;28;20033;-77
2021/10/24 00:24:51;;;;;;;15.25;8.38;;;;;;;3.92;90.17;102551.59;5039551;28;20111;-78
2021/10/24 00:27:16;;;;;;;19.23;9.65;;;;;;;3.90;90.30;102549.94;5047117;28;20038;-77
2021/10/24 00:29:42;;;;;;;16.17;9.05;;;;;;;3.88;90.55;102556.88;5031293;28;20044;-77
2021/10/24 00:32:07;;;;;;;17.13;9.57;;;;;;;3.90;90.42;102555.06;5046625;28;20044;-78
2021/10/24 00:34:33;;;;;;;20.83;10.40;;;;;;;4.03;90.47;102559.63;5030527;28;20068;-78
2021/10/24 00:36:59;;;;;;;19.17;9.98;;;;;;;4.00;90.33;102559.81;5047459;28;20033;-78
2021/10/24 00:39:24;;;;;;;22.80;11.38;;;;;;;3.89;91.11;102555.16;5047299;28;20092;-77
2021/10/24 00:41:51;;;;;;;23.17;10.60;;;;;;;4.03;90.89;102550.22;5029471;28;20265;-77
2021/10/24 00:44:25;;;;;;;25.27;11.10;;;;;;;3.96;91.49;102556.53;5046152;28;20079;-78
2021/10/24 00:46:52;;;;;;;17.30;10.50;;;;;;;3.90;91.99;102552.50;5030277;28;20041;-78
2021/10/24 00:49:19;;;;;;;21.60;9.48;;;;;;;3.88;92.12;102550.91;5046765;28;20397;-77
2021/10/24 00:51:46;;;;;;;22.63;10.90;;;;;;;3.85;92.46;102548.50;5029231;28;20038;-77
2021/10/24 00:54:13;;;;;;;16.77;10.15;;;;;;;3.85;92.49;102548.50;5022932;28;20613;-78
2021/10/24 00:56:41;;;;;;;21.48;10.73;;;;;;;3.88;92.30;102543.19;5046672;28;20412;-77
2021/10/24 00:59:08;;;;;;;18.77;10.18;;;;;;;3.95;92.46;102539.47;5045933;28;20056;-77
2021/10/24 01:01:34;;;;;;;26.65;11.90;;;;;;;3.88;91.98;102543.19;5046362;28;20042;-78
2021/10/24 01:04:01;;;;;;;28.23;12.25;;;;;;;3.97;92.14;102541.97;5046512;28;20101;-77
2021/10/24 01:06:27;;;;;;;23.95;11.82;;;;;;;3.90;92.16;102544.81;5046679;28;20041;-77
2021/10/24 01:08:53;;;;;;;26.35;12.38;;;;;;;4.03;92.52;102533.97;5046217;28;20502;-77
2021/10/24 01:11:19;;;;;;;22.73;11.27;;;;;;;4.00;92.43;102531.56;5046250;28;20028;-78
2021/10/24 01:13:45;;;;;;;26.20;12.70;;;;;;;3.98;92.71;102531.63;5046357;28;20398;-78
2021/10/24 01:16:13;;;;;;;18.73;10.38;;;;;;;4.00;92.87;102524.69;5029581;28;20113;-78
2021/10/24 01:18:39;;;;;;;25.95;12.00;;;;;;;3.89;92.74;102525.16;5022966;28;20124;-78
2021/10/24 01:21:06;;;;;;;20.10;11.10;;;;;;;3.97;93.63;102524.81;5036774;28;20057;-78
2021/10/24 01:23:32;;;;;;;23.30;11.00;;;;;;;3.96;93.26;102522.34;5045864;28;20102;-78
2021/10/24 01:25:59;;;;;;;23.17;10.23;;;;;;;4.07;92.97;102518.38;5019391;28;20030;-78
2021/10/24 01:28:26;;;;;;;18.83;10.95;;;;;;;3.97;93.10;102516.28;5045495;28;20425;-78
2021/10/24 01:30:54;;;;;;;22.90;10.38;;;;;;;4.04;93.16;102512.53;5010647;28;20192;-79
2021/10/24 01:33:20;;;;;;;22.00;10.45;;;;;;;4.00;93.34;102509.28;5046022;28;20037;-79
2021/10/24 01:36:07;;;;;;;20.13;9.88;;;;;;;3.93;92.93;102505.31;5022920;28;20033;-79
2021/10/24 01:38:35;;;;;;;26.38;9.70;;;;;;;3.97;93.29;102504.28;5044972;28;20037;-78
2021/10/24 01:41:01;;;;;;;21.48;10.25;;;;;;;3.93;93.21;102495.06;5046040;28;20033;-78
2021/10/24 01:43:27;;;;;;;19.13;10.80;;;;;;;3.94;92.87;102501.00;5028912;28;20026;-78
2021/10/24 01:45:54;;;;;;;26.05;11.18;;;;;;;3.96;93.10;102489.78;5046493;28;20029;-80
2021/10/24 01:48:23;;;;;;;24.05;11.80;;;;;;;3.89;93.41;102490.97;5030263;28;20025;-80
2021/10/24 01:50:50;;;;;;;22.90;11.88;;;;;;;3.83;93.41;102492.09;5013934;28;20037;-78
2021/10/24 01:53:25;;;;;;;18.83;10.63;;;;;;;3.79;93.37;102482.88;5045025;28;20490;-78
2021/10/24 01:55:51;;;;;;;23.25;11.52;;;;;;;3.69;93.71;102485.03;5048651;28;20033;-78
2021/10/24 01:58:18;;;;;;;25.98;10.77;;;;;;;3.85;93.67;102486.91;5050159;28;20095;-79
2021/10/24 02:00:44;;;;;;;20.40;10.73;;;;;;;3.84;93.44;102483.50;5034572;28;20400;-79
2021/10/24 02:03:12;;;;;;;21.15;9.73;;;;;;;3.77;93.19;102476.13;5045816;28;20022;-79
2021/10/24 02:05:58;;;;;;;22.05;10.38;;;;;;;3.79;93.62;102471.78;5047152;28;20036;-79
2021/10/24 02:08:27;;;;;;;27.85;10.93;;;;;;;3.88;92.98;102474.75;5030829;28;20026;-80
2021/10/24 02:10:52;;;;;;;20.73;10.13;;;;;;;3.83;93.06;102471.56;5017202;28;20068;-80
2021/10/24 02:13:20;;;;;;;22.30;10.32;;;;;;;3.76;92.96;102464.22;5049935;28;20061;-79
2021/10/24 02:15:49;;;;;;;21.70;9.43;;;;;;;3.74;93.62;102468.59;5049802;28;20128;-79
2021/10/24 02:18:14;;;;;;;25.00;9.10;;;;;;;3.78;93.23;102458.09;5049362;28;20117;-79
2021/10/24 02:20:43;;;;;;;20.58;10.27;;;;;;;3.79;93.18;102458.97;5049352;28;20045;-79
2021/10/24 02:23:10;;;;;;;22.67;10.10;;;;;;;3.76;93.06;102461.66;5032906;28;20536;-78
2021/10/24 02:25:38;;;;;;;19.80;10.32;;;;;;;3.80;92.66;102458.03;5049720;28;20029;-79
2021/10/24 02:28:05;;;;;;;26.25;10.60;;;;;;;3.83;92.88;102453.59;5020844;28;20120;-79
2021/10/24 02:30:31;;;;;;;20.92;10.40;;;;;;;3.77;93.10;102445.34;5032852;28;20065;-79
2021/10/24 02:33:03;;;;;;;25.40;10.07;;;;;;;3.70;93.12;102452.50;5030905;28;20029;-79
2021/10/24 02:35:45;;;;;;;16.27;10.05;;;;;;;3.69;93.40;102449.13;5045632;28;20328;-80
2021/10/24 02:38:10;;;;;;;18.60;10.25;;;;;;;3.56;93.35;102444.59;5015907;28;20032;-79
2021/10/24 02:40:37;;;;;;;23.17;11.07;;;;;;;3.56;93.61;102434.34;5048229;28;20044;-79
2021/10/24 02:43:05;;;;;;;30.35;12.30;;;;;;;3.66;93.57;102438.97;5031755;28;20480;-79
2021/10/24 02:45:31;;;;;;;21.45;10.43;;;;;;;3.54;93.43;102434.41;5030915;28;20033;-79
2021/10/24 02:47:57;;;;;;;20.50;10.55;;;;;;;3.53;93.65;102435.31;5031379;28;20129;-78
2021/10/24 02:50:24;;;;;;;23.83;10.27;;;;;;;3.58;93.48;102437.66;5048882;28;20044;-79
2021/10/24 02:52:51;;;;;;;20.30;9.77;;;;;;;3.54;93.10;102433.56;5047584;28;20084;-79
2021/10/24 02:55:16;;;;;;;20.35;10.65;;;;;;;3.56;93.12;102432.63;5047381;28;20021;-79
2021/10/24 02:57:42;;;;;;;19.58;11.80;;;;;;;3.56;93.27;102426.66;5014440;28;20124;-78
2021/10/24 03:00:09;;;;;;;19.77;10.85;;;;;;;3.57;93.63;102434.28;5046890;28;20033;-80
2021/10/24 03:02:36;;;;;;;29.77;12.00;;;;;;;3.56;93.34;102424.94;5047195;28;20025;-79
2021/10/24 03:05:08;;;;;;;23.52;11.57;;;;;;;3.48;93.33;102425.28;5013963;28;20033;-78
2021/10/24 03:07:34;;;;;;;21.85;11.27;;;;;;;3.46;93.41;102427.06;5048571;28;20417;-79
2021/10/24 03:10:00;;;;;;;24.38;12.65;;;;;;;3.44;93.50;102418.59;5046913;28;20409;-79
2021/10/24 03:12:26;;;;;;;20.40;11.00;;;;;;;3.63;93.26;102422.91;5045268;28;20077;-78
2021/10/24 03:14:52;;;;;;;23.45;11.98;;;;;;;3.53;92.64;102419.94;5046260;28;20033;-78
2021/10/24 03:17:20;;;;;;;30.83;12.52;;;;;;;3.55;92.84;102419.88;5030115;28;20030;-79
2021/10/24 03:19:46;;;;;;;22.40;11.32;;;;;;;3.58;93.39;102417.13;5043639;28;20030;-79
2021/10/24 03:22:12;;;;;;;21.52;12.50;;;;;;;3.51;93.09;102419.19;5033493;28;20041;-80
2021/10/24 03:24:38;;;;;;;20.92;11.48;;;;;;;3.53;93.06;102417.38;5047422;28;20021;-80
2021/10/24 03:27:04;;;;;;;27.33;12.90;;;;;;;3.50;93.18;102414.94;5050690;28;20371;-79
2021/10/24 03:29:30;;;;;;;24.45;11.43;;;;;;;3.49;93.30;102415.84;5053983;28;20030;-79
2021/10/24 03:31:56;;;;;;;21.15;11.23;;;;;;;3.44;93.26;102417.78;5032963;28;20037;-82
2021/10/24 03:34:22;;;;;;;18.98;10.68;;;;;;;3.42;93.33;102417.03;5049544;28;20053;-79
2021/10/24 03:36:48;;;;;;;26.92;12.25;;;;;;;3.37;93.48;102417.25;5049353;28;20037;-78
2021/10/24 03:39:14;;;;;;;25.08;11.40;;;;;;;3.48;93.62;102415.03;5003433;28;20025;-80
2021/10/24 03:41:40;;;;;;;22.60;11.45;;;;;;;3.45;93.66;102412.59;5043933;28;20044;-79
2021/10/24 03:44:08;;;;;;;27.10;12.00;;;;;;;3.52;93.14;102413.13;5031685;28;20068;-79
2021/10/24 03:46:35;;;;;;;26.35;10.85;;;;;;;3.46;93.34;102414.22;5049492;28;20061;-79
2021/10/24 03:49:02;;;;;;;22.27;11.40;;;;;;;3.43;93.01;102408.44;5048037;28;20049;-79
2021/10/24 03:51:28;;;;;;;25.83;12.57;;;;;;;3.42;93.09;102412.72;5049348;28;20030;-81
2021/10/24 03:53:54;;;;;;;24.35;11.60;;;;;;;3.47;93.16;102407.41;5032476;28;20040;-79
2021/10/24 03:56:19;;;;;;;31.08;12.30;;;;;;;3.40;92.80;102416.25;5048342;28;20033;-79
2021/10/24 03:58:45;;;;;;;48.08;23.63;;;;;;;3.39;93.20;102415.44;5016013;28;20061;-78
2021/10/24 04:01:14;;;;;;;28.77;12.65;;;;;;;3.40;92.67;102404.25;5031183;28;20037;-77
2021/10/24 04:03:40;;;;;;;33.10;13.80;;;;;;;3.27;93.16;102416.81;5016288;28;20517;-81
2021/10/24 04:06:06;;;;;;;22.45;11.68;;;;;;;3.29;93.22;102409.88;5031159;28;20032;-78
2021/10/24 04:08:32;;;;;;;23.13;12.30;;;;;;;3.30;93.12;102409.00;5032832;28;20359;-80
2021/10/24 04:10:58;;;;;;;29.48;13.48;;;;;;;3.24;93.56;102399.00;5048178;28;20087;-79
2021/10/24 04:13:24;;;;;;;26.40;12.65;;;;;;;3.18;93.40;102399.28;5048550;28;20083;-79
2021/10/24 04:15:50;;;;;;;30.77;12.98;;;;;;;3.26;92.93;102404.91;5029370;28;20033;-79
2021/10/24 04:18:51;;;;;;;27.88;12.25;;;;;;;3.27;93.06;102403.16;5031465;28;20030;-79
2021/10/24 04:21:16;;;;;;;31.83;12.45;;;;;;;3.25;92.76;102405.78;5048219;28;20033;-78
2021/10/24 04:23:42;;;;;;;25.40;13.05;;;;;;;3.21;92.50;102398.31;5049385;28;20133;-79
2021/10/24 04:26:08;;;;;;;31.23;12.98;;;;;;;3.10;92.67;102401.34;5048939;28;20060;-79
2021/10/24 04:28:33;;;;;;;23.92;12.45;;;;;;;3.11;93.16;102400.47;5033569;28;20492;-79
2021/10/24 04:30:59;;;;;;;24.85;12.75;;;;;;;3.20;93.57;102396.63;5048779;28;20030;-79
2021/10/24 04:33:24;;;;;;;28.08;12.82;;;;;;;3.18;93.12;102386.44;5047976;28;20034;-80
2021/10/24 04:35:50;;;;;;;24.42;11.82;;;;;;;3.13;93.14;102385.84;5047762;28;20033;-78
2021/10/24 04:38:16;;;;;;;30.85;13.35;;;;;;;3.07;92.98;102394.66;5048520;28;20017;-79
2021/10/24 04:40:41;;;;;;;26.23;12.95;;;;;;;3.09;93.01;102389.44;5047444;28;20047;-79
2021/10/24 04:43:13;;;;;;;20.30;12.18;;;;;;;3.05;92.89;102382.78;5046838;28;20541;-79
2021/10/24 04:45:39;;;;;;;25.67;12.65;;;;;;;3.05;92.81;102378.50;5047794;28;20034;-79
2021/10/24 04:48:04;;;;;;;30.15;13.07;;;;;;;3.07;92.86;102375.84;5014748;28;20035;-79
2021/10/24 04:50:39;;;;;;;25.38;12.70;;;;;;;2.99;92.92;102376.19;5046568;28;20025;-78
2021/10/24 04:53:07;;;;;;;27.63;13.18;;;;;;;3.05;93.14;102368.25;5046901;28;20068;-80
2021/10/24 04:55:33;;;;;;;34.45;13.80;;;;;;;2.93;92.58;102369.59;5047459;28;20116;-79
2021/10/24 04:57:59;;;;;;;24.17;12.15;;;;;;;3.02;92.60;102363.25;5029245;28;20056;-78
2021/10/24 05:00:25;;;;;;;25.50;13.32;;;;;;;2.98;92.64;102358.34;5030637;28;20485;-80
2021/10/24 05:02:51;;;;;;;28.42;13.27;;;;;;;3.04;92.07;102364.00;5006295;28;20018;-77
2021/10/24 05:05:17;;;;;;;22.33;11.68;;;;;;;3.07;92.35;102369.00;5047811;28;20040;-79
2021/10/24 05:07:43;;;;;;;25.35;13.30;;;;;;;2.98;92.97;102361.72;5031971;28;20053;-79
2021/10/24 05:10:09;;;;;;;29.05;13.05;;;;;;;2.83;92.70;102360.69;5031958;28;20037;-79
2021/10/24 05:12:35;;;;;;;27.38;13.05;;;;;;;2.82;93.35;102360.75;5047968;28;20061;-80
2021/10/24 05:15:02;;;;;;;27.58;11.90;;;;;;;2.77;93.68;102355.84;5048548;28;20253;-78
2021/10/24 05:17:27;;;;;;;23.77;13.43;;;;;;;2.80;93.97;102352.28;5048897;28;20032;-79
2021/10/24 05:19:53;;;;;;;32.72;12.85;;;;;;;2.92;92.64;102351.75;5047974;28;20433;-80
2021/10/24 05:22:21;;;;;;;23.42;11.73;;;;;;;2.85;92.13;102355.50;5046542;28;20260;-79
2021/10/24 05:24:47;;;;;;;29.23;12.55;;;;;;;2.82;91.68;102346.19;5013512;28;20041;-79
2021/10/24 05:27:12;;;;;;;22.98;11.45;;;;;;;2.70;92.53;102350.13;5022486;28;20029;-78
2021/10/24 05:29:38;;;;;;;20.95;11.05;;;;;;;2.62;92.60;102348.78;5049907;28;20398;-78
2021/10/24 05:32:04;;;;;;;22.05;11.43;;;;;;;2.54;92.83;102344.00;5033973;28;20067;-79
2021/10/24 05:34:29;;;;;;;19.88;11.07;;;;;;;2.51;93.16;102342.41;5051528;28;20040;-81
2021/10/24 05:37:04;;;;;;;19.42;11.52;;;;;;;2.49;92.93;102340.81;5050235;28;20037;-79
2021/10/24 05:39:30;;;;;;;21.70;11.38;;;;;;;2.43;92.85;102344.47;5035807;28;20410;-80
2021/10/24 05:41:58;;;;;;;18.88;9.70;;;;;;;2.37;92.74;102336.22;5034503;28;20025;-79
2021/10/24 05:44:24;;;;;;;24.83;11.45;;;;;;;2.38;92.83;102337.88;5050893;28;20025;-79
2021/10/24 05:46:55;;;;;;;19.67;10.65;;;;;;;2.34;92.92;102327.78;5034815;28;20039;-79
2021/10/24 05:49:21;;;;;;;23.35;12.25;;;;;;;2.43;92.41;102325.69;5051215;28;20128;-79
2021/10/24 05:51:52;;;;;;;18.20;11.23;;;;;;;2.41;92.00;102319.81;5050501;28;20112;-80
2021/10/24 05:54:20;;;;;;;23.42;12.25;;;;;;;2.40;91.82;102323.28;5018447;28;20033;-80
2021/10/24 05:56:45;;;;;;;26.02;11.38;;;;;;;2.46;91.96;102317.91;5035338;28;20041;-79
2021/10/24 05:59:16;;;;;;;28.13;11.95;;;;;;;2.50;92.27;102317.69;5045773;28;20505;-81
2021/10/24 06:02:04;;;;;;;23.52;12.15;;;;;;;2.59;92.86;102310.53;5037893;28;20107;-80
2021/10/24 06:04:48;;;;;;;30.23;13.77;;;;;;;2.47;93.04;102307.59;5025158;28;20076;-77
2021/10/24 06:07:25;;;;;;;25.70;12.57;;;;;;;2.36;93.58;102314.91;5047178;28;20021;-79
2021/10/24 06:09:55;;;;;;;29.65;13.27;;;;;;;2.38;93.78;102318.22;5050875;28;20040;-80
2021/10/24 06:15:10;;;;;;;29.67;13.65;;;;;;;2.56;93.51;102310.66;5050973;28;20037;-80
2021/10/24 06:17:37;;;;;;;32.67;13.30;;;;;;;2.54;93.24;102315.81;5029174;28;20468;-81
2021/10/24 06:20:05;;;;;;;23.42;12.77;;;;;;;2.47;93.42;102311.91;5042412;28;20049;-81
2021/10/24 06:22:31;;;;;;;32.78;14.73;;;;;;;2.47;93.35;102312.72;5050625;28;20029;-79
2021/10/24 06:24:57;;;;;;;28.27;13.73;;;;;;;2.57;93.58;102310.59;5017948;28;20087;-83
2021/10/24 06:27:28;;;;;;;28.95;13.35;;;;;;;2.58;93.87;102298.59;5050160;28;20025;-80
2021/10/24 06:29:54;;;;;;;27.33;14.07;;;;;;;2.48;93.75;102306.69;5051389;28;20064;-79
2021/10/24 06:32:43;;;;;;;26.20;13.55;;;;;;;2.49;94.24;102310.09;5028036;28;20116;-79
2021/10/24 06:35:47;;;;;;;29.80;13.00;;;;;;;2.51;94.14;102309.13;4965176;28;20039;-80
2021/10/24 06:38:32;;;;;;;27.42;13.15;;;;;;;2.51;94.30;102305.75;4956324;28;20082;-80
2021/10/24 06:41:08;;;;;;;28.20;14.07;;;;;;;2.66;94.07;102307.63;5005342;28;20045;-79
2021/10/24 06:43:37;;;;;;;31.65;14.57;;;;;;;2.67;93.61;102308.44;5017887;28;20424;-80
2021/10/24 06:46:21;;;;;;;27.23;14.88;;;;;;;2.70;93.71;102304.03;5029149;28;20090;-79
2021/10/24 06:48:47;;;;;;;28.40;14.77;;;;;;;2.81;93.73;102313.78;5050859;28;20490;-79
2021/10/24 06:51:21;;;;;;;28.75;14.88;;;;;;;2.85;93.21;102309.38;5033731;28;20373;-79
2021/10/24 06:54:05;;;;;;;31.30;16.48;;;;;;;2.72;93.54;102306.53;5032306;28;20044;-79
2021/10/24 06:57:00;;;;;;;37.25;16.25;;;;;;;2.72;94.06;102307.34;4981741;28;20082;-79
2021/10/24 06:59:44;;;;;;;39.63;16.75;;;;;;;2.83;93.91;102303.47;5028738;28;20084;-78
2021/10/24 07:02:33;;;;;;;33.60;16.70;;;;;;;2.89;93.64;102308.31;5014266;28;20103;-79
2021/10/24 07:05:07;;;;;;;34.60;16.48;;;;;;;2.85;93.55;102297.38;5026954;28;20056;-79
2021/10/24 07:07:37;;;;;;;36.75;16.95;;;;;;;2.78;93.85;102303.66;5015801;28;20402;-78
2021/10/24 07:10:07;;;;;;;34.75;17.13;;;;;;;2.77;93.92;102302.03;5032032;28;20497;-79
2021/10/24 07:12:34;;;;;;;36.25;17.33;;;;;;;2.84;94.23;102297.44;5029937;28;20127;-79
2021/10/24 07:15:00;;;;;;;37.50;18.23;;;;;;;2.89;94.17;102311.72;5030334;28;20498;-78
2021/10/24 07:17:25;;;;;;;33.88;16.50;;;;;;;2.87;94.63;102305.81;5013017;28;20033;-78
2021/10/24 07:19:51;;;;;;;39.90;18.90;;;;;;;3.00;94.37;102305.28;5012590;28;20044;-80
2021/10/24 07:22:17;;;;;;;34.53;17.08;;;;;;;3.07;94.26;102299.81;5047731;28;20509;-79
2021/10/24 07:25:02;;;;;;;33.28;17.30;;;;;;;3.26;93.31;102298.97;5045527;28;20025;-78
2021/10/24 07:27:37;;;;;;;34.35;17.90;;;;;;;3.29;93.38;102302.19;5015521;28;20048;-77
2021/10/24 07:30:04;;;;;;;37.53;18.08;;;;;;;3.35;92.96;102295.94;5029927;28;20034;-78
2021/10/24 07:32:36;;;;;;;33.75;17.75;;;;;;;3.34;93.17;102294.28;5028023;28;20026;-78
2021/10/24 07:35:30;;;;;;;31.88;17.15;;;;;;;3.40;93.13;102300.88;5032594;28;20033;-79
2021/10/24 07:37:57;;;;;;;31.77;15.77;;;;;;;3.47;93.65;102295.38;5050031;28;20036;-78
2021/10/24 07:40:33;;;;;;;31.20;15.95;;;;;;;3.58;93.28;102292.28;5009070;28;20030;-78
2021/10/24 07:43:01;;;;;;;35.55;15.65;;;;;;;3.60;93.45;102290.47;5014105;28;20026;-78
2021/10/24 07:45:27;;;;;;;36.03;17.13;;;;;;;3.67;93.06;102291.00;5034173;28;20094;-78
2021/10/24 07:47:54;;;;;;;29.33;16.13;;;;;;;3.77;92.63;102281.13;5017218;28;20044;-74
2021/10/24 07:50:20;;;;;;;31.52;16.73;;;;;;;3.85;92.43;102279.00;5048561;28;20025;-79
2021/10/24 07:52:47;;;;;;;31.77;14.73;;;;;;;4.13;91.09;102285.34;5046001;28;20506;-78
2021/10/24 07:55:30;;;;;;;;;;;;;;;4.57;89.80;102279.63;5044556;28;20021;-77
2021/10/24 07:57:56;;;;;;;28.15;13.13;;;;;;;4.99;87.49;102283.38;5030059;28;19913;-78
2021/10/24 08:00:23;;;;;;;23.48;12.52;;;;;;;5.58;84.83;102284.41;5046796;28;20147;-76
2021/10/24 08:02:51;;;;;;;21.92;10.82;;;;;;;5.96;82.25;102268.50;5031569;28;20445;-76
2021/10/24 08:05:17;;;;;;;23.05;10.88;;;;;;;6.12;80.67;102262.44;5047178;28;20040;-77
2021/10/24 08:07:43;;;;;;;25.17;10.45;;;;;;;6.49;78.98;102257.66;5027240;28;20442;-75
2021/10/24 08:10:11;;;;;;;15.82;9.48;;;;;;;6.66;78.40;102261.78;5029689;28;20045;-78
2021/10/24 08:12:43;;;;;;;17.13;9.52;;;;;;;7.13;76.64;102258.78;5045878;28;20080;-76
2021/10/24 08:15:11;;;;;;;25.92;10.43;;;;;;;7.26;75.85;102250.28;5045701;28;20037;-77
2021/10/24 08:17:38;;;;;;;14.80;9.18;;;;;;;7.69;74.08;102252.66;5025543;28;20052;-76
2021/10/24 08:20:44;;;;;;;15.98;7.93;;;;;;;7.52;74.18;102251.19;4975759;28;20411;-78
2021/10/24 08:23:12;;;;;;;17.30;8.95;;;;;;;7.96;72.83;102252.53;4962749;28;20112;-76
2021/10/24 08:25:38;;;;;;;19.77;8.80;;;;;;;8.33;71.30;102247.47;4990369;28;20037;-77
2021/10/24 08:28:05;;;;;;;16.00;8.57;;;;;;;8.27;71.53;102242.69;5011967;28;20025;-78
2021/10/24 08:30:52;;;;;;;21.13;8.40;;;;;;;8.55;71.70;102244.22;5043220;28;20489;-79
2021/10/24 08:33:30;;;;;;;16.90;8.32;;;;;;;8.82;70.16;102251.00;5036928;28;20053;-79
2021/10/24 08:35:58;;;;;;;15.23;7.65;;;;;;;8.77;70.01;102240.97;5044705;28;20489;-74
2021/10/24 08:38:24;;;;;;;12.68;6.68;;;;;;;8.88;69.13;102245.38;5044251;28;20505;-76
2021/10/24 08:40:49;;;;;;;16.73;7.10;;;;;;;8.77;69.86;102231.44;5045502;28;20033;-76
2021/10/24 08:43:20;;;;;;;17.17;7.32;;;;;;;8.46;70.86;102231.97;5044839;28;20022;-79
2021/10/24 08:45:47;;;;;;;16.48;7.45;;;;;;;8.43;70.60;102227.81;5045249;28;20087;-79
2021/10/24 08:48:15;;;;;;;14.50;7.28;;;;;;;8.38;70.99;102225.53;5027856;28;20029;-76
2021/10/24 08:50:41;;;;;;;13.27;6.45;;;;;;;8.22;71.26;102222.34;5028688;28;20044;-78
2021/10/24 08:53:11;;;;;;;14.63;6.90;;;;;;;8.21;71.94;102225.03;5029229;28;20038;-79
2021/10/24 08:55:38;;;;;;;15.15;7.10;;;;;;;8.17;71.62;102220.09;5044903;28;20175;-78
2021/10/24 08:58:05;;;;;;;14.95;7.32;;;;;;;8.18;71.96;102226.91;5029423;28;20116;-75
2021/10/24 09:00:31;;;;;;;16.42;8.30;;;;;;;8.09;72.90;102221.53;5044795;28;20409;-77
2021/10/24 09:03:04;;;;;;;14.75;6.65;;;;;;;8.01;72.91;102213.50;5043511;28;20034;-76
2021/10/24 09:05:41;;;;;;;14.18;7.28;;;;;;;7.77;73.05;102209.06;5028290;28;20030;-75
2021/10/24 09:08:11;;;;;;;15.07;6.97;;;;;;;7.52;74.60;102215.84;5027848;28;20136;-79
2021/10/24 09:10:41;;;;;;;13.60;6.63;;;;;;;7.52;75.65;102218.44;5044392;28;20277;-78
2021/10/24 09:13:10;;;;;;;13.75;6.68;;;;;;;7.57;75.00;102212.97;5044284;28;20037;-77
2021/10/24 09:16:05;;;;;;;13.30;6.15;;;;;;;7.49;76.02;102216.03;5027206;28;20021;-79
2021/10/24 09:18:43;;;;;;;17.48;6.90;;;;;;;7.71;76.28;102204.31;5020042;28;20506;-75
2021/10/24 09:21:15;;;;;;;16.90;7.18;;;;;;;7.67;76.34;102197.69;5042899;28;20134;-75
2021/10/24 09:23:50;;;;;;;13.75;6.43;;;;;;;7.72;74.88;102198.19;5044316;28;20033;-76
2021/10/24 09:26:30;;;;;;;13.15;6.97;;;;;;;7.75;74.93;102196.25;5022858;28;20041;-79
2021/10/24 09:29:08;;;;;;;11.55;6.10;;;;;;;7.72;74.90;102191.31;5030193;28;20029;-78
2021/10/24 09:31:36;;;;;;;10.95;5.70;;;;;;;7.84;74.64;102191.41;5043561;28;20045;-77
2021/10/24 09:34:11;;;;;;;13.13;6.32;;;;;;;7.77;73.11;102188.41;5044339;28;20030;-77
2021/10/24 09:36:52;;;;;;;16.05;6.40;;;;;;;7.68;74.44;102189.84;5044712;28;20114;-75
2021/10/24 09:39:37;;;;;;;13.20;6.35;;;;;;;7.77;74.84;102188.41;5038356;28;20072;-77
2021/10/24 09:42:17;;;;;;;11.20;5.95;;;;;;;7.84;75.35;102181.91;5027554;28;20041;-78
2021/10/24 09:45:06;;;;;;;14.90;6.63;;;;;;;7.96;74.47;102178.44;5043739;28;20073;-78
2021/10/24 09:47:33;;;;;;;12.65;6.55;;;;;;;7.94;73.95;102182.91;5022311;28;20034;-78
2021/10/24 09:50:00;;;;;;;10.38;6.43;;;;;;;8.05;74.46;102164.09;5027952;28;20029;-76
2021/10/24 09:52:31;;;;;;;12.65;5.55;;;;;;;8.06;74.20;102168.34;5025595;28;20026;-76
2021/10/24 09:55:00;;;;;;;16.10;6.20;;;;;;;8.17;74.57;102165.84;5027084;28;20613;-80
2021/10/24 09:57:28;;;;;;;15.63;6.28;;;;;;;8.13;75.14;102160.97;5010546;28;20017;-75
2021/10/24 09:59:54;;;;;;;15.98;6.07;;;;;;;8.11;75.61;102153.31;5021636;28;20486;-75
2021/10/24 10:02:23;;;;;;;15.65;6.45;;;;;;;8.31;73.84;102158.88;5028532;28;20025;-74
2021/10/24 10:04:49;;;;;;;13.80;6.68;;;;;;;8.43;73.48;102157.22;5044254;28;20033;-76
2021/10/24 10:07:16;;;;;;;14.70;7.22;;;;;;;8.38;74.07;102147.16;5043619;28;20028;-79
2021/10/24 10:09:42;;;;;;;14.05;6.10;;;;;;;8.52;71.51;102151.38;5044382;28;20120;-80
2021/10/24 10:12:08;;;;;;;18.13;6.63;;;;;;;8.49;72.07;102143.84;5043716;28;20443;-76
2021/10/24 10:14:35;;;;;;;13.60;6.63;;;;;;;8.52;72.14;102141.03;5044106;28;20030;-78
2021/10/24 10:17:14;;;;;;;18.30;6.32;;;;;;;8.57;73.25;102138.97;5045871;28;20116;-76
2021/10/24 10:19:42;;;;;;;15.05;5.53;;;;;;;8.66;73.23;102132.28;5046942;28;20037;-78
2021/10/24 10:22:21;;;;;;;12.60;5.60;;;;;;;8.62;73.96;102131.69;5046108;28;20104;-79
2021/10/24 10:25:00;;;;;;;12.32;5.25;;;;;;;8.75;72.44;102131.63;5047527;28;20128;-78
2021/10/24 10:27:28;;;;;;;13.05;5.38;;;;;;;8.80;71.63;102126.94;5020522;28;20402;-77
2021/10/24 10:30:07;;;;;;;14.93;5.82;;;;;;;8.82;70.95;102126.84;5045038;28;20037;-77
2021/10/24 10:32:38;;;;;;;17.88;5.93;;;;;;;8.93;71.56;102127.69;5046571;28;20041;-77
2021/10/24 10:35:08;;;;;;;17.20;5.75;;;;;;;9.00;72.70;102127.22;5031490;28;20038;-78
2021/10/24 10:37:55;;;;;;;12.35;6.30;;;;;;;9.12;70.94;102114.22;5047297;28;20128;-78
2021/10/24 10:40:41;;;;;;;9.05;5.28;;;;;;;9.16;71.59;102118.22;5031888;28;20037;-78
2021/10/24 10:43:19;;;;;;;11.57;5.22;;;;;;;9.24;69.81;102116.81;5046811;28;20582;-80
2021/10/24 10:45:56;;;;;;;9.80;5.00;;;;;;;9.21;71.17;102114.47;5032635;28;20516;-77
2021/10/24 10:48:24;;;;;;;10.13;5.03;;;;;;;9.19;70.22;102108.56;5045495;28;20437;-78
2021/10/24 10:51:13;;;;;;;15.18;6.50;;;;;;;9.44;69.56;102118.75;5030531;28;20022;-79
2021/10/24 10:53:45;;;;;;;14.88;5.63;;;;;;;9.40;69.38;102109.56;5006543;28;20049;-77
2021/10/24 10:56:23;;;;;;;13.25;5.75;;;;;;;9.48;69.07;102108.97;5047089;28;20445;-78
2021/10/24 10:59:00;;;;;;;12.95;5.85;;;;;;;9.45;68.79;102112.59;5047688;28;20048;-80
2021/10/24 11:01:34;;;;;;;12.90;5.50;;;;;;;9.52;68.94;102112.97;5046448;28;20036;-78
2021/10/24 11:04:15;;;;;;;12.20;5.30;;;;;;;9.61;68.83;102116.66;5031680;28;20072;-78
2021/10/24 11:06:40;;;;;;;7.75;4.72;;;;;;;9.58;69.64;102102.16;5042565;28;20504;-80
2021/10/24 11:09:46;;;;;;;12.52;5.32;;;;;;;9.55;68.79;102105.81;5047353;28;20112;-81
2021/10/24 11:12:41;;;;;;;10.68;5.18;;;;;;;9.60;67.75;102109.81;5046368;28;20048;-81
2021/10/24 11:15:14;;;;;;;13.73;5.30;;;;;;;9.51;68.03;102106.97;5031489;28;20037;-79
2021/10/24 11:17:46;;;;;;;;;;;;;;;9.66;68.16;102111.91;5048358;28;20041;-81
2021/10/24 11:20:21;;;;;;;12.35;4.85;;;;;;;9.75;67.91;102112.03;5028878;28;20329;-79
2021/10/24 11:23:02;;;;;;;9.23;5.07;;;;;;;9.72;67.70;102120.06;5046555;28;20038;-76
2021/10/24 11:25:36;;;;;;;14.60;4.85;;;;;;;9.80;67.56;102113.47;5007970;28;20040;-79
2021/10/24 11:28:07;;;;;;;14.27;4.80;;;;;;;9.79;68.26;102107.44;5042668;28;20037;-80
2021/10/24 11:30:35;;;;;;;9.02;4.40;;;;;;;9.82;67.34;102106.38;5027766;28;20391;-79
2021/10/24 11:33:01;;;;;;;8.93;4.70;;;;;;;10.00;66.88;102098.94;5044081;28;20018;-80
2021/10/24 11:35:27;;;;;;;12.13;4.22;;;;;;;10.02;66.12;102095.28;5046826;28;20372;-79
2021/10/24 11:37:59;;;;;;;14.52;4.60;;;;;;;10.00;67.06;102093.75;5046211;28;20040;-82